createdAt,value
2019-05-06T16:32:15.121Z,1.50
2019-05-06T16:34:43.086Z,2.37
2019-05-06T16:37:09.827Z,2.37
2019-05-06T16:39:36.562Z,2.13
2019-05-06T16:42:03.878Z,2.13
2019-05-06T16:44:31.087Z,2.53
2019-05-06T16:46:57.974Z,1.80
2019-05-06T16:49:24.553Z,2.07
2019-05-06T16:51:53.332Z,1.77
2019-05-06T16:54:20.173Z,1.80
2019-05-06T16:56:55.607Z,1.73
2019-05-06T16:59:23.833Z,2.47
2019-05-06T17:01:52.300Z,2.13
2019-05-06T17:04:26.645Z,2.37
2019-05-06T17:06:53.547Z,1.80
2019-05-06T17:09:23.894Z,2.10
2019-05-06T17:11:49.051Z,2.37
2019-05-06T17:14:15.742Z,2.20
2019-05-06T17:16:43.281Z,2.67
2019-05-06T17:19:09.926Z,2.40
2019-05-06T17:21:36.455Z,1.70
2019-05-06T17:24:13.447Z,2.30
2019-05-06T17:26:42.417Z,2.47
2019-05-06T17:29:26.121Z,2.30
2019-05-06T17:32:02.532Z,1.80
2019-05-06T17:34:32.193Z,2.37
2019-05-06T17:37:04.528Z,2.30
2019-05-06T17:39:32.698Z,2.40
2019-05-06T17:41:59.942Z,2.10
2019-05-06T17:44:26.476Z,2.27
2019-05-06T17:47:07.503Z,1.70
2019-05-06T17:49:34.550Z,2.20
2019-05-06T17:52:07.041Z,1.60
2019-05-06T17:54:33.723Z,2.33
2019-05-06T17:57:03.859Z,2.27
2019-05-06T17:59:29.153Z,2.03
2019-05-06T18:01:58.703Z,2.03
2019-05-06T18:04:25.786Z,1.87
2019-05-06T18:06:56.276Z,2.40
2019-05-06T18:09:23.170Z,1.93
2019-05-06T18:11:58.481Z,2.00
2019-05-06T18:14:20.084Z,1.90
2019-05-06T18:16:46.824Z,2.10
2019-05-06T18:19:13.403Z,1.70
2019-05-06T18:21:40.112Z,1.67
2019-05-06T18:24:09.687Z,1.83
2019-05-06T18:26:35.413Z,1.37
2019-05-06T18:29:02.661Z,1.70
2019-05-06T18:31:29.273Z,2.03
2019-05-06T18:33:55.921Z,2.03
2019-05-06T18:36:22.861Z,1.77
2019-05-06T18:38:49.489Z,1.90
2019-05-06T18:41:16.240Z,2.10
2019-05-06T18:43:42.915Z,1.77
2019-05-06T18:46:11.675Z,2.20
2019-05-06T18:48:38.331Z,1.60
2019-05-06T18:51:04.929Z,2.37
2019-05-06T18:53:33.248Z,1.97
2019-05-06T18:56:03.067Z,1.77
2019-05-06T18:58:30.612Z,2.00
2019-05-06T19:00:57.236Z,2.17
2019-05-06T19:03:25.631Z,1.90
2019-05-06T19:05:53.027Z,1.73
2019-05-06T19:08:33.202Z,1.93
2019-05-06T19:10:59.938Z,1.57
2019-05-06T19:13:26.584Z,1.67
2019-05-06T19:15:53.425Z,2.35
2019-05-06T19:18:22.379Z,2.00
2019-05-06T19:20:48.734Z,2.37
2019-05-06T19:23:15.413Z,1.80
2019-05-06T19:25:42.851Z,1.93
2019-05-06T19:28:09.518Z,1.73
2019-05-06T19:30:36.307Z,1.90
2019-05-06T19:33:03.222Z,2.20
2019-05-06T19:35:32.353Z,2.20
2019-05-06T19:37:59.544Z,2.23
2019-05-06T19:40:26.109Z,2.20
2019-05-06T19:42:53.398Z,2.27
2019-05-06T19:45:22.465Z,2.20
2019-05-06T19:47:49.351Z,1.90
2019-05-06T19:50:21.016Z,2.10
2019-05-06T19:52:46.638Z,2.00
2019-05-06T19:55:13.433Z,1.80
2019-05-06T19:57:40.241Z,2.13
2019-05-06T20:00:07.589Z,2.20
2019-05-06T20:02:34.253Z,2.40
2019-05-06T20:05:05.739Z,1.90
2019-05-06T20:08:04.289Z,1.40
2019-05-06T20:10:49.462Z,1.73
2019-05-06T20:13:16.177Z,2.23
2019-05-06T20:15:42.980Z,2.40
2019-05-06T20:18:10.140Z,2.40
2019-05-06T20:20:36.956Z,2.27
2019-05-06T20:23:03.965Z,2.60
2019-05-06T20:25:32.601Z,3.10
2019-05-06T20:27:59.263Z,2.40
2019-05-06T20:30:27.093Z,2.20
2019-05-06T20:32:53.846Z,2.43
2019-05-06T20:35:23.780Z,2.23
2019-05-06T20:37:50.793Z,2.40
2019-05-06T20:40:17.561Z,2.37
2019-05-06T20:42:44.313Z,2.20
2019-05-06T20:45:12.804Z,2.63
2019-05-06T20:47:39.641Z,2.57
2019-05-06T20:50:07.152Z,2.37
2019-05-06T20:52:33.847Z,2.43
2019-05-06T20:55:02.781Z,1.93
2019-05-06T20:57:29.529Z,2.40
2019-05-06T20:59:56.259Z,2.40
2019-05-06T21:02:25.570Z,2.87
2019-05-06T21:04:51.886Z,3.53
2019-05-06T21:07:18.620Z,2.57
2019-05-06T21:09:45.250Z,2.23
2019-05-06T21:12:11.890Z,2.60
2019-05-06T21:14:38.580Z,2.60
2019-05-06T21:17:05.432Z,2.50
2019-05-06T21:19:33.107Z,2.93
2019-05-06T21:22:02.195Z,2.30
2019-05-06T21:24:28.709Z,2.30
2019-05-06T21:26:55.372Z,2.70
2019-05-06T21:29:23.265Z,2.30
2019-05-06T21:31:50.046Z,2.27
2019-05-06T21:34:16.729Z,2.53
2019-05-06T21:36:43.268Z,2.67
2019-05-06T21:39:10.189Z,2.37
2019-05-06T21:41:36.823Z,2.87
2019-05-06T21:44:03.724Z,3.00
2019-05-06T21:46:31.910Z,3.17
2019-05-06T21:48:58.979Z,2.90
2019-05-06T21:51:25.667Z,2.67
2019-05-06T21:53:52.197Z,2.57
2019-05-06T21:56:18.848Z,2.33
2019-05-06T21:58:45.485Z,2.93
2019-05-06T22:01:12.642Z,2.50
2019-05-06T22:03:43.197Z,2.70
2019-05-06T22:06:10.092Z,2.97
2019-05-06T22:08:36.629Z,2.73
2019-05-06T22:11:03.616Z,2.70
2019-05-06T22:13:30.283Z,2.83
2019-05-06T22:15:56.935Z,2.77
2019-05-06T22:18:23.685Z,3.50
2019-05-06T22:21:13.556Z,3.40
2019-05-06T22:24:08.770Z,3.20
2019-05-06T22:26:35.301Z,3.10
2019-05-06T22:29:02.401Z,3.27
2019-05-06T22:31:28.933Z,3.27
2019-05-06T22:33:55.700Z,3.30
2019-05-06T22:36:22.998Z,3.10
2019-05-06T22:38:49.650Z,3.47
2019-05-06T22:41:16.464Z,2.80
2019-05-06T22:43:43.102Z,4.10
2019-05-06T22:46:09.699Z,3.53
2019-05-06T22:48:36.333Z,3.10
2019-05-06T22:51:03.151Z,3.50
2019-05-06T22:53:29.798Z,4.10
2019-05-06T22:55:58.872Z,3.23
2019-05-06T22:58:25.496Z,3.47
2019-05-06T23:00:53.728Z,3.60
2019-05-06T23:03:22.794Z,3.10
2019-05-06T23:05:49.347Z,3.70
2019-05-06T23:08:16.012Z,3.57
2019-05-06T23:10:42.669Z,3.80
2019-05-06T23:13:09.229Z,3.63
2019-05-06T23:15:35.763Z,3.83
2019-05-06T23:18:02.462Z,3.60
2019-05-06T23:20:29.038Z,4.00
2019-05-06T23:22:55.571Z,3.10
2019-05-06T23:25:22.275Z,3.33
2019-05-06T23:27:48.809Z,3.27
2019-05-06T23:30:15.526Z,2.87
2019-05-06T23:32:42.387Z,2.83
2019-05-06T23:35:09.078Z,3.43
2019-05-06T23:38:12.638Z,3.10
2019-05-06T23:41:16.180Z,3.53
2019-05-06T23:44:19.756Z,3.03
2019-05-06T23:47:23.441Z,3.50
2019-05-06T23:50:27.268Z,3.00
2019-05-06T23:53:32.548Z,2.60
2019-05-06T23:56:35.824Z,3.27
2019-05-06T23:59:02.579Z,3.30
